Time,TemperatureF,DewpointF,PressureIn,WindDirection,WindDirectionDegrees,WindSpeedMPH,WindSpeedGustMPH,Humidity,HourlyPrecipIn,Conditions,Clouds,dailyrainin,SoftwareType,DateUTC
2013-03-12 00:00:00,48.9,46.1,30.11,WSW,248,0.2,0.2,90,0.00,,OVC,0.00,VWS V14.00,2013-03-12 04:00:00,
2013-03-12 00:05:00,48.9,46.1,30.10,WSW,248,0.8,0.8,90,0.00,,OVC,0.00,VWS V14.00,2013-03-12 04:05:00,
2013-03-12 00:10:00,49.1,46.3,30.10,SSW,202,0.0,0.0,90,0.00,,OVC,0.00,VWS V14.00,2013-03-12 04:10:00,
2013-03-12 00:15:00,49.1,46.0,30.09,SSW,202,2.2,2.2,89,0.00,,OVC,0.00,VWS V14.00,2013-03-12 04:15:00,
2013-03-12 00:20:00,49.1,46.0,30.09,SW,225,2.2,3.5,89,0.00,,OVC,0.00,VWS V14.00,2013-03-12 04:20:00,
2013-03-12 00:25:00,49.2,46.1,30.09,SW,225,2.2,2.2,89,0.00,,OVC,0.00,VWS V14.00,2013-03-12 04:25:00,
2013-03-12 00:30:00,49.2,46.1,30.09,SSW,202,5.3,5.3,89,0.00,,OVC,0.00,VWS V14.00,2013-03-12 04:30:00,
2013-03-12 00:35:00,49.2,46.1,30.08,SSE,158,0.4,0.4,89,0.00,,OVC,0.00,VWS V14.00,2013-03-12 04:35:00,
2013-03-12 00:40:00,49.2,46.1,30.08,SSE,158,3.1,3.1,89,0.00,,OVC,0.00,VWS V14.00,2013-03-12 04:40:00,
2013-03-12 00:45:00,49.2,46.1,30.08,SSW,202,0.0,0.0,89,0.00,,OVC,0.00,VWS V14.00,2013-03-12 04:45:00,
2013-03-12 00:50:00,49.2,46.1,30.07,SSW,202,3.5,3.5,89,0.00,,OVC,0.00,VWS V14.00,2013-03-12 04:50:00,
2013-03-12 00:55:00,49.2,46.1,30.07,SSW,202,1.5,1.5,89,0.00,,OVC,0.00,VWS V14.00,2013-03-12 04:55:00,
2013-03-12 01:00:00,49.2,46.1,30.07,SSW,202,4.6,4.6,89,0.00,,OVC,0.00,VWS V14.00,2013-03-12 05:00:00,
2013-03-12 01:05:00,48.9,45.8,30.06,South,180,5.8,5.8,89,0.00,,OVC,0.00,VWS V14.00,2013-03-12 05:05:00,
2013-03-12 01:10:00,48.9,45.8,30.06,WSW,248,1.3,1.3,89,0.00,,OVC,0.00,VWS V14.00,2013-03-12 05:10:00,
2013-03-12 01:15:00,48.7,45.6,30.06,South,180,8.5,8.5,89,0.00,,OVC,0.00,VWS V14.00,2013-03-12 05:15:00,
2013-03-12 01:20:00,48.7,45.6,30.05,ESE,112,2.2,2.2,89,0.00,,OVC,0.00,VWS V14.00,2013-03-12 05:20:00,
2013-03-12 01:25:00,48.9,45.8,30.05,SSW,202,0.0,0.0,89,0.00,,OVC,0.00,VWS V14.00,2013-03-12 05:25:00,
2013-03-12 01:30:00,49.1,46.0,30.05,SW,225,0.8,0.8,89,0.00,,OVC,0.00,VWS V14.00,2013-03-12 05:30:00,
2013-03-12 01:35:00,49.1,46.0,30.05,SE,135,1.1,1.1,89,0.00,,OVC,0.00,VWS V14.00,2013-03-12 05:35:00,
2013-03-12 01:40:00,49.1,46.0,30.04,ESE,112,3.3,3.3,89,0.00,,OVC,0.00,VWS V14.00,2013-03-12 05:40:00,
2013-03-12 01:45:00,49.1,46.0,30.04,ESE,112,3.3,3.3,89,0.00,,OVC,0.00,VWS V14.00,2013-03-12 05:45:00,
2013-03-12 01:50:00,48.9,45.8,30.04,SSW,202,2.4,2.4,89,0.00,,OVC,0.00,VWS V14.00,2013-03-12 05:50:00,
2013-03-12 01:55:00,48.7,45.6,30.03,SW,225,6.0,6.0,89,0.00,,OVC,0.00,VWS V14.00,2013-03-12 05:55:00,
2013-03-12 02:00:00,48.5,45.4,30.03,SW,225,9.6,9.6,89,0.00,,OVC,0.00,VWS V14.00,2013-03-12 06:00:00,
2013-03-12 02:05:00,48.3,45.2,30.03,SSE,158,0.0,0.0,89,0.00,,OVC,0.00,VWS V14.00,2013-03-12 06:05:00,
2013-03-12 02:10:00,48.2,45.1,30.03,SSW,202,2.2,2.2,89,0.00,,OVC,0.00,VWS V14.00,2013-03-12 06:10:00,
2013-03-12 02:14:00,48.2,45.1,30.02,SW,225,4.4,4.4,89,0.00,,OVC,0.00,VWS V14.00,2013-03-12 06:14:00,
2013-03-12 02:19:00,48.0,44.9,30.02,SW,225,2.6,2.6,89,0.00,,OVC,0.00,VWS V14.00,2013-03-12 06:19:00,
2013-03-12 02:24:00,48.0,44.9,30.00,South,180,3.3,3.3,89,0.00,,OVC,0.00,VWS V14.00,2013-03-12 06:24:00,
2013-03-12 02:29:00,48.0,44.9,30.00,SW,225,3.5,3.5,89,0.00,,OVC,0.00,VWS V14.00,2013-03-12 06:29:00,
2013-03-12 02:34:00,48.0,44.9,30.01,WSW,248,4.0,4.0,89,0.00,,OVC,0.00,VWS V14.00,2013-03-12 06:34:00,
2013-03-12 02:39:00,48.0,44.9,30.02,SW,225,8.0,8.0,89,0.00,,OVC,0.00,VWS V14.00,2013-03-12 06:39:00,
2013-03-12 02:44:00,48.0,44.9,30.00,SW,225,3.1,3.1,89,0.00,,OVC,0.00,VWS V14.00,2013-03-12 06:44:00,
2013-03-12 02:49:00,48.0,44.9,29.99,SSW,202,5.1,5.1,89,0.00,,OVC,0.00,VWS V14.00,2013-03-12 06:49:00,
2013-03-12 02:54:00,48.2,44.8,29.98,SSE,158,1.5,1.5,88,0.00,,OVC,0.00,VWS V14.00,2013-03-12 06:54:00,
2013-03-12 03:08:00,48.2,44.8,30.00,SSW,202,2.2,6.0,88,0.00,,OVC,0.00,VWS V14.00,2013-03-12 07:08:00,
2013-03-12 03:13:00,48.2,44.8,30.01,SSW,202,5.8,7.8,88,0.00,,OVC,0.00,VWS V14.00,2013-03-12 07:13:00,
2013-03-12 03:18:00,48.3,44.9,30.01,SW,225,5.8,5.8,88,0.00,,OVC,0.00,VWS V14.00,2013-03-12 07:18:00,
2013-03-12 03:23:00,48.5,45.1,30.01,SSW,202,1.1,1.1,88,0.00,,OVC,0.00,VWS V14.00,2013-03-12 07:23:00,
2013-03-12 03:28:00,48.7,45.3,30.01,SW,225,4.6,4.6,88,0.00,,OVC,0.00,VWS V14.00,2013-03-12 07:28:00,
2013-03-12 03:33:00,48.7,45.3,30.00,WSW,248,0.0,0.0,88,0.00,,OVC,0.00,VWS V14.00,2013-03-12 07:33:00,
2013-03-12 03:38:00,48.9,45.2,30.00,SSE,158,4.9,4.9,87,0.00,,OVC,0.00,VWS V14.00,2013-03-12 07:38:00,
2013-03-12 03:43:00,49.1,45.4,30.00,SW,225,4.9,4.9,87,0.00,,OVC,0.00,VWS V14.00,2013-03-12 07:43:00,
2013-03-12 03:48:00,49.2,45.5,30.00,SW,225,0.0,0.0,87,0.00,,OVC,0.00,VWS V14.00,2013-03-12 07:48:00,
2013-03-12 03:53:00,49.2,45.5,29.99,WSW,248,6.0,6.0,87,0.00,,OVC,0.00,VWS V14.00,2013-03-12 07:53:00,
2013-03-12 03:58:00,49.2,45.5,29.99,South,180,0.8,0.8,87,0.00,,OVC,0.00,VWS V14.00,2013-03-12 07:58:00,
2013-03-12 04:03:00,49.6,45.9,29.99,WSW,248,0.0,0.0,87,0.00,,OVC,0.00,VWS V14.00,2013-03-12 08:03:00,
2013-03-12 04:08:00,49.6,45.6,29.99,SW,225,5.1,5.1,86,0.00,,OVC,0.00,VWS V14.00,2013-03-12 08:08:00,
2013-03-12 04:13:00,49.8,45.8,29.99,SSW,202,2.6,2.6,86,0.00,,OVC,0.00,VWS V14.00,2013-03-12 08:13:00,
2013-03-12 04:18:00,49.8,45.8,29.99,South,180,2.9,2.9,86,0.00,,OVC,0.00,VWS V14.00,2013-03-12 08:18:00,
2013-03-12 04:23:00,49.8,45.8,29.99,SSE,158,2.0,2.0,86,0.00,,OVC,0.00,VWS V14.00,2013-03-12 08:23:00,
2013-03-12 04:28:00,49.8,45.8,29.99,SW,225,3.8,3.8,86,0.00,,OVC,0.00,VWS V14.00,2013-03-12 08:28:00,
2013-03-12 04:33:00,50.1,46.1,29.99,WSW,248,1.3,1.3,86,0.00,,OVC,0.00,VWS V14.00,2013-03-12 08:33:00,
2013-03-12 04:38:00,50.1,45.8,29.99,SSW,202,3.5,3.5,85,0.00,,OVC,0.00,VWS V14.00,2013-03-12 08:38:00,
2013-03-12 04:43:00,50.1,45.8,29.99,WSW,248,4.6,6.7,85,0.00,,OVC,0.00,VWS V14.00,2013-03-12 08:43:00,
2013-03-12 04:48:00,50.1,45.8,29.99,WSW,248,0.0,0.0,85,0.00,,OVC,0.00,VWS V14.00,2013-03-12 08:48:00,
2013-03-12 04:53:00,50.3,46.0,29.98,SW,225,2.0,5.8,85,0.00,,OVC,0.00,VWS V14.00,2013-03-12 08:53:00,
2013-03-12 04:58:00,50.5,46.2,29.97,SSW,202,6.2,6.2,85,0.00,,OVC,0.00,VWS V14.00,2013-03-12 08:58:00,
2013-03-12 05:03:00,50.7,46.4,29.96,SE,135,0.0,0.0,85,0.00,,OVC,0.00,VWS V14.00,2013-03-12 09:03:00,
2013-03-12 05:08:00,50.9,46.2,29.97,South,180,0.8,0.8,84,0.00,,OVC,0.00,VWS V14.00,2013-03-12 09:08:00,
2013-03-12 05:13:00,50.7,46.0,29.97,SSW,202,7.6,7.6,84,0.00,,OVC,0.00,VWS V14.00,2013-03-12 09:13:00,
2013-03-12 05:18:00,50.5,45.8,29.97,West,270,0.0,0.0,84,0.00,,OVC,0.00,VWS V14.00,2013-03-12 09:18:00,
2013-03-12 05:23:00,50.3,45.7,29.97,SW,225,0.0,3.1,84,0.00,,OVC,0.00,VWS V14.00,2013-03-12 09:23:00,
2013-03-12 05:28:00,50.1,45.5,29.97,SW,225,2.0,2.0,84,0.00,,OVC,0.00,VWS V14.00,2013-03-12 09:28:00,
2013-03-12 05:33:00,50.1,45.5,29.97,South,180,0.0,0.0,84,0.00,,OVC,0.00,VWS V14.00,2013-03-12 09:33:00,
2013-03-12 05:38:00,50.1,45.5,29.96,SSW,202,7.6,7.6,84,0.00,,OVC,0.00,VWS V14.00,2013-03-12 09:38:00,
2013-03-12 05:43:00,50.3,45.7,29.97,SSW,202,3.8,3.8,84,0.00,,OVC,0.00,VWS V14.00,2013-03-12 09:43:00,
2013-03-12 05:48:00,50.1,45.5,29.97,SE,135,2.6,2.6,84,0.00,,OVC,0.00,VWS V14.00,2013-03-12 09:48:00,
2013-03-12 05:53:00,49.8,45.5,29.97,WSW,248,0.0,0.0,85,0.00,,OVC,0.00,VWS V14.00,2013-03-12 09:53:00,
2013-03-12 05:58:00,49.8,45.5,29.96,SSW,202,0.6,0.6,85,0.00,,OVC,0.00,VWS V14.00,2013-03-12 09:58:00,
2013-03-12 06:03:00,49.8,45.5,29.96,SSW,202,6.4,6.4,85,0.00,,OVC,0.00,VWS V14.00,2013-03-12 10:03:00,
2013-03-12 06:08:00,49.6,45.3,29.97,SE,135,0.0,7.1,85,0.00,,OVC,0.00,VWS V14.00,2013-03-12 10:08:00,
2013-03-12 06:13:00,49.4,45.1,29.97,South,180,3.8,3.8,85,0.00,,OVC,0.00,VWS V14.00,2013-03-12 10:13:00,
2013-03-12 06:18:00,49.2,45.2,29.97,SSW,202,1.5,1.5,86,0.00,,OVC,0.00,VWS V14.00,2013-03-12 10:18:00,
2013-03-12 06:23:00,49.6,45.6,29.96,SSW,202,0.0,0.0,86,0.00,,OVC,0.00,VWS V14.00,2013-03-12 10:23:00,
2013-03-12 06:28:00,49.8,45.8,29.96,South,180,4.4,4.4,86,0.00,,OVC,0.00,VWS V14.00,2013-03-12 10:28:00,
2013-03-12 06:33:00,49.8,45.8,29.96,SSE,158,0.0,0.0,86,0.00,,OVC,0.00,VWS V14.00,2013-03-12 10:33:00,
2013-03-12 06:38:00,49.8,45.8,29.97,SSW,202,0.6,0.6,86,0.00,,OVC,0.00,VWS V14.00,2013-03-12 10:38:00,
2013-03-12 06:43:00,49.6,45.6,29.96,SSW,202,2.4,2.4,86,0.00,,OVC,0.00,VWS V14.00,2013-03-12 10:43:00,
2013-03-12 06:48:00,49.6,45.6,29.97,WSW,248,0.0,0.0,86,0.00,,OVC,0.00,VWS V14.00,2013-03-12 10:48:00,
2013-03-12 06:53:00,49.2,45.2,29.97,West,270,0.0,0.0,86,0.00,,OVC,0.00,VWS V14.00,2013-03-12 10:53:00,
2013-03-12 06:58:00,49.2,45.2,29.96,SSE,158,4.9,4.9,86,0.00,,OVC,0.00,VWS V14.00,2013-03-12 10:58:00,
2013-03-12 07:03:00,49.1,45.4,29.96,SW,225,2.9,2.9,87,0.00,,OVC,0.00,VWS V14.00,2013-03-12 11:03:00,
2013-03-12 07:08:00,49.1,45.4,29.96,SW,225,0.0,0.0,87,0.00,,OVC,0.00,VWS V14.00,2013-03-12 11:08:00,
2013-03-12 07:13:00,49.1,45.4,29.95,WSW,248,1.1,1.1,87,0.00,,OVC,0.00,VWS V14.00,2013-03-12 11:13:00,
2013-03-12 07:18:00,49.1,45.4,29.95,South,180,2.4,2.4,87,0.00,,OVC,0.00,VWS V14.00,2013-03-12 11:18:00,
2013-03-12 07:23:00,49.1,45.4,29.95,West,270,3.3,3.3,87,0.00,,OVC,0.00,VWS V14.00,2013-03-12 11:23:00,
2013-03-12 07:28:00,49.1,45.4,29.95,SSW,202,3.8,3.8,87,0.00,,OVC,0.00,VWS V14.00,2013-03-12 11:28:00,
2013-03-12 07:33:00,49.1,45.4,29.95,South,180,4.9,4.9,87,0.02,,OVC,0.02,VWS V14.00,2013-03-12 11:33:00,
2013-03-12 07:38:00,49.2,45.5,29.95,WNW,292,5.3,5.3,87,0.02,,OVC,0.02,VWS V14.00,2013-03-12 11:38:00,
2013-03-12 07:43:00,49.1,45.4,29.95,SSW,202,4.0,4.0,87,0.02,,OVC,0.02,VWS V14.00,2013-03-12 11:43:00,
2013-03-12 07:48:00,49.1,45.4,29.95,South,180,4.0,4.0,87,0.02,,OVC,0.02,VWS V14.00,2013-03-12 11:48:00,
2013-03-12 07:53:00,49.2,45.5,29.95,SW,225,0.0,0.0,87,0.02,,OVC,0.02,VWS V14.00,2013-03-12 11:53:00,
2013-03-12 07:58:00,49.2,45.5,29.95,WSW,248,0.0,0.0,87,0.02,,OVC,0.02,VWS V14.00,2013-03-12 11:58:00,
2013-03-12 08:03:00,49.2,45.5,29.95,South,180,11.1,11.1,87,0.02,,OVC,0.02,VWS V14.00,2013-03-12 12:03:00,
2013-03-12 08:08:00,49.2,45.5,29.95,SW,225,0.8,0.8,87,0.04,,OVC,0.04,VWS V14.00,2013-03-12 12:08:00,
2013-03-12 08:13:00,49.2,45.8,29.95,WSW,248,0.6,0.6,88,0.04,,OVC,0.04,VWS V14.00,2013-03-12 12:13:00,
2013-03-12 08:18:00,49.4,46.0,29.95,SW,225,0.8,0.8,88,0.04,,OVC,0.04,VWS V14.00,2013-03-12 12:18:00,
2013-03-12 08:23:00,49.6,46.2,29.95,SSW,202,5.3,5.3,88,0.04,,OVC,0.04,VWS V14.00,2013-03-12 12:23:00,
2013-03-12 08:28:00,49.6,46.2,29.95,SW,225,3.5,3.5,88,0.06,,OVC,0.06,VWS V14.00,2013-03-12 12:28:00,
2013-03-12 08:33:00,49.6,46.2,29.95,South,180,0.0,0.0,88,0.04,,OVC,0.06,VWS V14.00,2013-03-12 12:33:00,
2013-03-12 08:38:00,49.8,46.4,29.95,SSW,202,3.1,3.1,88,0.04,,OVC,0.06,VWS V14.00,2013-03-12 12:38:00,
2013-03-12 08:43:00,49.8,46.4,29.95,SW,225,4.2,4.2,88,0.04,,OVC,0.06,VWS V14.00,2013-03-12 12:43:00,
2013-03-12 08:48:00,49.8,46.4,29.94,SSW,202,0.0,0.0,88,0.04,,OVC,0.06,VWS V14.00,2013-03-12 12:48:00,
2013-03-12 08:53:00,49.6,46.2,29.94,SE,135,4.2,4.2,88,0.04,,OVC,0.06,VWS V14.00,2013-03-12 12:53:00,
2013-03-12 08:58:00,49.8,46.4,29.94,WSW,248,4.2,4.2,88,0.04,,OVC,0.06,VWS V14.00,2013-03-12 12:58:00,
2013-03-12 09:03:00,49.8,46.4,29.94,WSW,248,6.2,6.2,88,0.04,,OVC,0.06,VWS V14.00,2013-03-12 13:03:00,
2013-03-12 09:08:00,50.1,47.0,29.94,SSE,158,6.9,6.9,89,0.02,,OVC,0.06,VWS V14.00,2013-03-12 13:08:00,
2013-03-12 09:13:00,50.1,46.7,29.94,West,270,1.7,1.7,88,0.02,,OVC,0.06,VWS V14.00,2013-03-12 13:13:00,
2013-03-12 09:17:00,50.1,46.7,29.93,SSW,202,2.6,2.6,88,0.02,,OVC,0.06,VWS V14.00,2013-03-12 13:17:00,
2013-03-12 09:22:00,50.0,46.6,29.93,SSW,202,1.5,1.5,88,0.02,,OVC,0.06,VWS V14.00,2013-03-12 13:22:00,
2013-03-12 09:28:00,49.8,46.4,29.93,SSW,202,3.1,3.1,88,0.00,,OVC,0.06,VWS V14.00,2013-03-12 13:28:00,
2013-03-12 09:33:00,50.0,46.6,29.93,SSW,202,0.0,0.0,88,0.00,,OVC,0.06,VWS V14.00,2013-03-12 13:33:00,
2013-03-12 09:38:00,49.8,46.7,29.93,SSW,202,5.8,5.8,89,0.00,,OVC,0.06,VWS V14.00,2013-03-12 13:38:00,
2013-03-12 09:43:00,50.1,47.0,29.93,SSW,202,5.8,5.8,89,0.00,,OVC,0.06,VWS V14.00,2013-03-12 13:43:00,
2013-03-12 09:48:00,50.1,47.0,29.92,West,270,3.3,3.3,89,0.00,,OVC,0.06,VWS V14.00,2013-03-12 13:48:00,
2013-03-12 09:53:00,50.3,47.2,29.92,SW,225,0.8,0.8,89,0.00,,OVC,0.06,VWS V14.00,2013-03-12 13:53:00,
2013-03-12 09:58:00,50.3,47.2,29.92,SSW,202,0.6,0.6,89,0.02,,OVC,0.08,VWS V14.00,2013-03-12 13:58:00,
2013-03-12 10:03:00,50.5,47.4,29.91,WSW,248,4.9,4.9,89,0.02,,OVC,0.08,VWS V14.00,2013-03-12 14:03:00,
2013-03-12 10:08:00,50.5,47.1,29.91,SW,225,0.0,0.0,88,0.02,,OVC,0.08,VWS V14.00,2013-03-12 14:08:00,
2013-03-12 10:13:00,50.3,46.9,29.90,SE,135,4.0,4.0,88,0.02,,OVC,0.08,VWS V14.00,2013-03-12 14:13:00,
2013-03-12 10:18:00,50.3,46.9,29.91,SW,225,3.1,3.1,88,0.02,,OVC,0.08,VWS V14.00,2013-03-12 14:18:00,
2013-03-12 10:23:00,50.5,47.1,29.90,SSE,158,0.4,7.1,88,0.02,,OVC,0.08,VWS V14.00,2013-03-12 14:23:00,
2013-03-12 10:28:00,50.3,46.9,29.90,SW,225,8.2,8.2,88,0.02,,OVC,0.08,VWS V14.00,2013-03-12 14:28:00,
2013-03-12 10:33:00,50.3,47.2,29.91,SSW,202,0.0,0.0,89,0.02,,OVC,0.08,VWS V14.00,2013-03-12 14:33:00,
2013-03-12 10:38:00,50.3,47.2,29.90,SSW,202,13.4,13.4,89,0.02,,OVC,0.08,VWS V14.00,2013-03-12 14:38:00,
2013-03-12 10:43:00,50.5,47.4,29.90,SSW,202,7.6,7.6,89,0.04,,OVC,0.10,VWS V14.00,2013-03-12 14:43:00,
2013-03-12 10:48:00,50.7,47.6,29.90,West,270,5.8,5.8,89,0.04,,OVC,0.10,VWS V14.00,2013-03-12 14:48:00,
2013-03-12 10:53:00,50.7,47.6,29.90,SSE,158,2.2,2.2,89,0.02,,OVC,0.10,VWS V14.00,2013-03-12 14:53:00,
2013-03-12 10:58:00,50.7,47.6,29.89,SW,225,5.3,5.3,89,0.02,,OVC,0.10,VWS V14.00,2013-03-12 14:58:00,
2013-03-12 11:03:00,50.7,47.6,29.89,SW,225,0.0,0.0,89,0.04,,OVC,0.12,VWS V14.00,2013-03-12 15:03:00,
2013-03-12 11:08:00,50.7,47.6,29.89,WSW,248,6.9,6.9,89,0.04,,OVC,0.12,VWS V14.00,2013-03-12 15:08:00,
2013-03-12 11:13:00,50.7,47.6,29.89,SW,225,0.8,0.8,89,0.04,,OVC,0.12,VWS V14.00,2013-03-12 15:13:00,
2013-03-12 11:18:00,50.7,47.6,29.88,SSE,158,1.1,1.1,89,0.06,,OVC,0.14,VWS V14.00,2013-03-12 15:18:00,
2013-03-12 11:23:00,50.7,47.6,29.88,SW,225,2.0,2.0,89,0.06,,OVC,0.14,VWS V14.00,2013-03-12 15:23:00,
2013-03-12 11:28:00,50.7,47.6,29.87,SSW,202,4.2,4.2,89,0.06,,OVC,0.14,VWS V14.00,2013-03-12 15:28:00,
2013-03-12 11:33:00,50.7,47.6,29.87,SE,135,0.0,0.0,89,0.06,,OVC,0.14,VWS V14.00,2013-03-12 15:33:00,
2013-03-12 11:38:00,50.5,47.4,29.87,SSW,202,1.3,1.3,89,0.06,,OVC,0.14,VWS V14.00,2013-03-12 15:38:00,
2013-03-12 11:43:00,50.5,47.4,29.87,SSW,202,2.9,2.9,89,0.04,,OVC,0.14,VWS V14.00,2013-03-12 15:43:00,
2013-03-12 11:48:00,50.3,47.2,29.86,SE,135,0.0,0.0,89,0.04,,OVC,0.14,VWS V14.00,2013-03-12 15:48:00,
2013-03-12 11:53:00,50.3,47.2,29.86,ESE,112,0.0,0.0,89,0.04,,OVC,0.14,VWS V14.00,2013-03-12 15:53:00,
2013-03-12 11:58:00,50.3,47.2,29.86,SW,225,2.0,2.0,89,0.04,,OVC,0.14,VWS V14.00,2013-03-12 15:58:00,
2013-03-12 12:03:00,50.3,47.2,29.86,SSE,158,0.0,0.0,89,0.02,,OVC,0.14,VWS V14.00,2013-03-12 16:03:00,
2013-03-12 12:08:00,50.3,47.2,29.86,South,180,0.0,0.0,89,0.02,,OVC,0.14,VWS V14.00,2013-03-12 16:08:00,
2013-03-12 12:13:00,50.3,47.2,29.86,South,180,0.0,0.0,89,0.04,,OVC,0.17,VWS V14.00,2013-03-12 16:13:00,
2013-03-12 12:18:00,50.1,47.0,29.86,SSW,202,12.7,12.7,89,0.02,,OVC,0.17,VWS V14.00,2013-03-12 16:18:00,
2013-03-12 12:23:00,50.1,47.0,29.86,SSE,158,2.9,2.9,89,0.02,,OVC,0.17,VWS V14.00,2013-03-12 16:23:00,
2013-03-12 12:28:00,50.1,47.0,29.85,SSE,158,5.1,5.1,89,0.04,,OVC,0.19,VWS V14.00,2013-03-12 16:28:00,
2013-03-12 12:33:00,50.1,47.0,29.85,SSW,202,4.2,4.2,89,0.04,,OVC,0.19,VWS V14.00,2013-03-12 16:33:00,
2013-03-12 12:38:00,50.3,47.2,29.85,SSW,202,12.5,12.5,89,0.04,,OVC,0.19,VWS V14.00,2013-03-12 16:38:00,
2013-03-12 12:43:00,50.5,47.4,29.85,SW,225,5.1,5.1,89,0.06,,OVC,0.20,VWS V14.00,2013-03-12 16:43:00,
2013-03-12 12:48:00,50.3,47.5,29.85,SW,225,3.1,3.1,90,0.06,,OVC,0.20,VWS V14.00,2013-03-12 16:48:00,
2013-03-12 12:53:00,50.5,47.7,29.85,SSW,202,11.8,11.8,90,0.08,,OVC,0.22,VWS V14.00,2013-03-12 16:53:00,
2013-03-12 12:58:00,50.5,47.7,29.83,WSW,248,5.1,5.1,90,0.08,,OVC,0.22,VWS V14.00,2013-03-12 16:58:00,
2013-03-12 13:03:00,50.3,47.5,29.83,WSW,248,0.0,5.3,90,0.08,,OVC,0.22,VWS V14.00,2013-03-12 17:03:00,
2013-03-12 13:08:00,50.3,47.5,29.83,ENE,68,0.0,0.0,90,0.08,,OVC,0.22,VWS V14.00,2013-03-12 17:08:00,
2013-03-12 13:13:00,50.3,47.5,29.82,SW,225,1.5,1.5,90,0.08,,OVC,0.24,VWS V14.00,2013-03-12 17:13:00,
2013-03-12 13:18:00,50.3,47.5,29.82,SSW,202,2.0,2.0,90,0.08,,OVC,0.24,VWS V14.00,2013-03-12 17:18:00,
2013-03-12 13:23:00,50.3,47.5,29.81,South,180,2.0,2.0,90,0.10,,OVC,0.26,VWS V14.00,2013-03-12 17:23:00,
2013-03-12 13:28:00,50.1,47.3,29.81,SW,225,3.8,3.8,90,0.08,,OVC,0.26,VWS V14.00,2013-03-12 17:28:00,
2013-03-12 13:33:00,50.1,47.3,29.81,SSW,202,1.3,1.3,90,0.10,,OVC,0.29,VWS V14.00,2013-03-12 17:33:00,
2013-03-12 13:38:00,50.1,47.3,29.80,SSW,202,3.8,3.8,90,0.10,,OVC,0.29,VWS V14.00,2013-03-12 17:38:00,
2013-03-12 13:43:00,50.1,47.3,29.80,SSW,202,0.0,0.0,90,0.08,,OVC,0.29,VWS V14.00,2013-03-12 17:43:00,
2013-03-12 13:48:00,50.1,47.3,29.79,WSW,248,0.0,3.8,90,0.10,,OVC,0.31,VWS V14.00,2013-03-12 17:48:00,
2013-03-12 13:53:00,50.1,47.3,29.79,SSW,202,7.1,7.1,90,0.08,,OVC,0.31,VWS V14.00,2013-03-12 17:53:00,
2013-03-12 13:58:00,50.1,47.3,29.78,SW,225,8.5,8.5,90,0.08,,OVC,0.31,VWS V14.00,2013-03-12 17:58:00,
2013-03-12 14:03:00,50.1,47.3,29.78,SW,225,6.4,6.4,90,0.08,,OVC,0.31,VWS V14.00,2013-03-12 18:03:00,
2013-03-12 14:08:00,50.0,47.2,29.78,ESE,112,1.5,1.5,90,0.10,,OVC,0.33,VWS V14.00,2013-03-12 18:08:00,
2013-03-12 14:13:00,50.1,47.3,29.78,SSE,158,0.0,5.1,90,0.08,,OVC,0.33,VWS V14.00,2013-03-12 18:13:00,
2013-03-12 14:18:00,50.1,47.3,29.77,South,180,6.9,6.9,90,0.10,,OVC,0.35,VWS V14.00,2013-03-12 18:18:00,
2013-03-12 14:23:00,50.1,47.3,29.76,SE,135,2.2,2.9,90,0.10,,OVC,0.37,VWS V14.00,2013-03-12 18:23:00,
2013-03-12 14:48:00,50.2,47.7,56.41,North,0,0.0,0.0,91,0.00,,OVC,0.37,VWS V14.00,2013-03-12 18:48:00,
2013-03-12 14:53:00,49.8,47.3,29.73,WSW,248,4.6,4.6,91,0.12,,OVC,6.95,VWS V14.00,2013-03-12 18:53:00,
2013-03-12 14:58:00,49.6,47.1,29.72,SW,225,2.2,2.2,91,0.14,,OVC,6.97,VWS V14.00,2013-03-12 18:58:00,
2013-03-12 15:03:00,49.8,47.3,29.72,SW,225,6.4,6.4,91,0.16,,OVC,6.99,VWS V14.00,2013-03-12 19:03:00,
2013-03-12 15:08:00,49.6,47.1,29.71,South,180,4.0,4.0,91,0.16,,OVC,7.01,VWS V14.00,2013-03-12 19:08:00,
2013-03-12 15:13:00,49.6,47.1,29.71,SSW,202,7.3,7.3,91,0.21,,OVC,7.06,VWS V14.00,2013-03-12 19:13:00,
2013-03-12 15:18:00,49.8,47.6,29.71,SW,225,6.7,6.7,92,0.20,,OVC,7.07,VWS V14.00,2013-03-12 19:18:00,
2013-03-12 15:23:00,49.8,47.6,29.70,SW,225,3.1,3.1,92,0.22,,OVC,7.11,VWS V14.00,2013-03-12 19:23:00,
2013-03-12 15:28:00,49.8,47.6,29.69,SSE,158,15.6,15.6,92,0.19,,OVC,7.14,VWS V14.00,2013-03-12 19:28:00,
2013-03-12 15:33:00,49.8,47.6,29.69,SSW,202,5.3,5.3,92,0.20,,OVC,7.16,VWS V14.00,2013-03-12 19:33:00,
2013-03-12 15:38:00,49.8,47.6,29.69,SW,225,0.2,0.2,92,0.22,,OVC,7.18,VWS V14.00,2013-03-12 19:38:00,
2013-03-12 15:43:00,49.8,47.6,29.69,WSW,248,1.3,1.3,92,0.26,,OVC,7.22,VWS V14.00,2013-03-12 19:43:00,
2013-03-12 15:48:00,50.1,47.9,29.69,West,270,9.1,9.1,92,0.31,,OVC,7.26,VWS V14.00,2013-03-12 19:48:00,
2013-03-12 15:53:00,50.7,48.5,29.70,SW,225,9.3,9.3,92,0.33,,OVC,7.28,VWS V14.00,2013-03-12 19:53:00,
2013-03-12 15:58:00,51.0,48.8,29.71,WSW,248,4.4,4.4,92,0.33,,OVC,7.30,VWS V14.00,2013-03-12 19:58:00,
2013-03-12 16:03:00,51.4,49.2,29.71,SW,225,9.8,9.8,92,0.33,,OVC,7.32,VWS V14.00,2013-03-12 20:03:00,
2013-03-12 16:08:00,51.6,49.4,29.70,WSW,248,0.6,0.6,92,0.33,,OVC,7.34,VWS V14.00,2013-03-12 20:08:00,
2013-03-12 16:13:00,51.9,49.7,29.69,SSW,202,2.2,2.2,92,0.30,,OVC,7.36,VWS V14.00,2013-03-12 20:13:00,
2013-03-12 16:18:00,52.3,50.0,29.68,South,180,6.0,6.0,92,0.28,,OVC,7.36,VWS V14.00,2013-03-12 20:18:00,
2013-03-12 16:23:00,53.4,51.1,29.68,SSW,202,2.2,2.2,92,0.24,,OVC,7.36,VWS V14.00,2013-03-12 20:23:00,
2013-03-12 16:28:00,53.7,51.4,29.68,WSW,248,3.5,3.5,92,0.22,,OVC,7.36,VWS V14.00,2013-03-12 20:28:00,
2013-03-12 16:33:00,53.7,51.4,29.68,WSW,248,6.7,6.7,92,0.20,,OVC,7.36,VWS V14.00,2013-03-12 20:33:00,
2013-03-12 16:38:00,54.1,51.8,29.69,SW,225,0.4,0.4,92,0.18,,OVC,7.36,VWS V14.00,2013-03-12 20:38:00,
2013-03-12 16:43:00,54.3,52.0,29.69,SW,225,7.3,7.3,92,0.12,,OVC,7.36,VWS V14.00,2013-03-12 20:43:00,
2013-03-12 16:48:00,54.3,52.0,29.69,SW,225,9.8,9.8,92,0.10,,OVC,7.36,VWS V14.00,2013-03-12 20:48:00,
2013-03-12 16:53:00,54.3,52.0,29.70,WSW,248,4.0,4.0,92,0.08,,OVC,7.36,VWS V14.00,2013-03-12 20:53:00,
2013-03-12 16:58:00,54.3,52.0,29.69,SW,225,6.4,6.4,92,0.04,,OVC,7.36,VWS V14.00,2013-03-12 20:58:00,
2013-03-12 17:03:00,54.3,52.0,29.69,WSW,248,13.8,13.8,92,0.04,,OVC,7.36,VWS V14.00,2013-03-12 21:03:00,
2013-03-12 17:08:00,54.3,52.0,29.70,SSW,202,7.8,7.8,92,0.02,,OVC,7.36,VWS V14.00,2013-03-12 21:08:00,
2013-03-12 17:13:00,54.3,52.0,29.70,SSW,202,7.3,7.3,92,0.00,,OVC,7.36,VWS V14.00,2013-03-12 21:13:00,
2013-03-12 17:18:00,54.5,52.2,29.70,WSW,248,4.2,4.2,92,0.00,,OVC,7.36,VWS V14.00,2013-03-12 21:18:00,
2013-03-12 17:23:00,54.5,52.2,29.70,SW,225,5.8,5.8,92,0.00,,OVC,7.36,VWS V14.00,2013-03-12 21:23:00,
2013-03-12 17:28:00,54.5,52.2,29.70,SW,225,2.2,2.2,92,0.00,,OVC,7.36,VWS V14.00,2013-03-12 21:28:00,
2013-03-12 17:33:00,54.6,52.3,29.71,SW,225,0.0,0.0,92,0.00,,OVC,7.36,VWS V14.00,2013-03-12 21:33:00,
2013-03-12 17:38:00,54.5,52.2,29.71,SW,225,9.6,9.6,92,0.00,,OVC,7.36,VWS V14.00,2013-03-12 21:38:00,
2013-03-12 17:43:00,54.5,52.2,29.71,SW,225,6.4,6.4,92,0.00,,OVC,7.36,VWS V14.00,2013-03-12 21:43:00,
2013-03-12 17:48:00,54.3,52.0,29.71,WSW,248,1.1,1.1,92,0.00,,OVC,7.36,VWS V14.00,2013-03-12 21:48:00,
2013-03-12 17:53:00,54.5,52.2,29.71,WSW,248,5.3,5.3,92,0.00,,OVC,7.36,VWS V14.00,2013-03-12 21:53:00,
2013-03-12 17:58:00,54.6,52.3,29.71,SW,225,4.2,4.2,92,0.00,,OVC,7.36,VWS V14.00,2013-03-12 21:58:00,
2013-03-12 18:03:00,54.8,52.5,29.72,SW,225,5.8,5.8,92,0.00,,OVC,7.36,VWS V14.00,2013-03-12 22:03:00,
2013-03-12 18:08:00,54.8,52.5,29.72,SW,225,5.5,5.5,92,0.00,,OVC,7.36,VWS V14.00,2013-03-12 22:08:00,
2013-03-12 18:13:00,54.8,52.5,29.72,WSW,248,4.0,4.0,92,0.00,,OVC,7.36,VWS V14.00,2013-03-12 22:13:00,
2013-03-12 18:18:00,54.8,52.5,29.72,WSW,248,3.5,3.5,92,0.00,,OVC,7.36,VWS V14.00,2013-03-12 22:18:00,
2013-03-12 18:23:00,54.8,52.5,29.72,WSW,248,0.8,0.8,92,0.00,,OVC,7.36,VWS V14.00,2013-03-12 22:23:00,
2013-03-12 18:28:00,54.6,52.3,29.73,SW,225,2.0,2.0,92,0.00,,OVC,7.36,VWS V14.00,2013-03-12 22:28:00,
2013-03-12 18:33:00,54.6,52.3,29.72,WSW,248,1.3,1.3,92,0.00,,OVC,7.36,VWS V14.00,2013-03-12 22:33:00,
2013-03-12 18:38:00,54.6,52.3,29.73,SW,225,2.4,2.4,92,0.00,,OVC,7.36,VWS V14.00,2013-03-12 22:38:00,
2013-03-12 18:43:00,54.5,52.2,29.73,SW,225,3.1,3.1,92,0.00,,OVC,7.36,VWS V14.00,2013-03-12 22:43:00,
2013-03-12 18:48:00,54.5,52.2,29.74,SW,225,0.0,0.0,92,0.00,,OVC,7.36,VWS V14.00,2013-03-12 22:48:00,
2013-03-12 18:53:00,54.3,52.0,29.74,WSW,248,3.1,3.1,92,0.00,,OVC,7.36,VWS V14.00,2013-03-12 22:53:00,
2013-03-12 18:58:00,54.5,52.2,29.74,West,270,0.0,0.0,92,0.00,,OVC,7.36,VWS V14.00,2013-03-12 22:58:00,
2013-03-12 19:03:00,54.5,52.2,29.76,WNW,292,0.0,0.0,92,0.00,,OVC,7.36,VWS V14.00,2013-03-12 23:03:00,
2013-03-12 19:08:00,54.1,51.8,29.77,West,270,2.2,2.2,92,0.00,,OVC,7.36,VWS V14.00,2013-03-12 23:08:00,
2013-03-12 19:13:00,53.9,51.6,29.77,West,270,1.1,1.1,92,0.00,,OVC,7.36,VWS V14.00,2013-03-12 23:13:00,
2013-03-12 19:18:00,53.7,51.4,29.77,WSW,248,0.0,0.0,92,0.00,,OVC,7.36,VWS V14.00,2013-03-12 23:18:00,
2013-03-12 19:23:00,53.4,51.1,29.77,NW,315,2.4,2.4,92,0.00,,OVC,7.36,VWS V14.00,2013-03-12 23:23:00,
2013-03-12 19:28:00,53.4,51.1,29.77,NW,315,1.1,1.1,92,0.00,,OVC,7.36,VWS V14.00,2013-03-12 23:28:00,
2013-03-12 19:33:00,53.4,51.1,29.77,ENE,68,0.0,0.0,92,0.00,,OVC,7.36,VWS V14.00,2013-03-12 23:33:00,
2013-03-12 19:38:00,53.2,50.7,29.77,WNW,292,2.9,2.9,91,0.00,,OVC,7.36,VWS V14.00,2013-03-12 23:38:00,
2013-03-12 19:43:00,53.2,50.7,29.77,NNW,338,4.4,4.4,91,0.00,,OVC,7.36,VWS V14.00,2013-03-12 23:43:00,
2013-03-12 19:48:00,52.8,50.2,29.78,West,270,0.0,0.0,91,0.00,,OVC,7.36,VWS V14.00,2013-03-12 23:48:00,
2013-03-12 19:53:00,52.8,50.2,29.78,WSW,248,3.8,3.8,91,0.00,,OVC,7.36,VWS V14.00,2013-03-12 23:53:00,
2013-03-12 19:58:00,52.7,49.8,29.79,WNW,292,0.0,0.0,90,0.00,,OVC,7.36,VWS V14.00,2013-03-12 23:58:00,
2013-03-12 20:03:00,52.5,49.7,29.79,WSW,248,0.0,0.0,90,0.00,,OVC,7.36,VWS V14.00,2013-03-13 00:03:00,
2013-03-12 20:08:00,52.3,49.5,29.80,NW,315,2.6,2.6,90,0.00,,OVC,7.36,VWS V14.00,2013-03-13 00:08:00,
2013-03-12 20:13:00,52.3,49.2,29.79,West,270,1.3,1.3,89,0.00,,OVC,7.36,VWS V14.00,2013-03-13 00:13:00,
2013-03-12 20:18:00,52.1,49.0,29.79,West,270,2.2,2.2,89,0.00,,OVC,7.36,VWS V14.00,2013-03-13 00:18:00,
2013-03-12 20:23:00,51.9,48.5,29.79,West,270,0.0,0.0,88,0.00,,OVC,7.36,VWS V14.00,2013-03-13 00:23:00,
2013-03-12 20:28:00,51.6,47.9,29.79,NNW,338,0.0,0.0,87,0.00,,OVC,7.36,VWS V14.00,2013-03-13 00:28:00,
2013-03-12 20:33:00,51.6,47.9,29.79,West,270,0.0,0.0,87,0.00,,OVC,7.36,VWS V14.00,2013-03-13 00:33:00,
2013-03-12 20:38:00,51.6,47.9,29.79,NW,315,0.2,0.2,87,0.00,,OVC,7.36,VWS V14.00,2013-03-13 00:38:00,
2013-03-12 20:43:00,51.4,47.4,29.80,NW,315,2.0,2.0,86,0.00,,OVC,7.36,VWS V14.00,2013-03-13 00:43:00,
2013-03-12 20:48:00,51.4,47.4,29.79,NNE,22,0.0,0.0,86,0.00,,OVC,7.36,VWS V14.00,2013-03-13 00:48:00,
2013-03-12 20:53:00,51.0,46.7,29.80,West,270,2.0,2.0,85,0.00,,OVC,7.36,VWS V14.00,2013-03-13 00:53:00,
2013-03-12 20:58:00,50.9,46.6,29.80,WSW,248,4.2,4.2,85,0.00,,OVC,7.36,VWS V14.00,2013-03-13 00:58:00,
2013-03-12 21:03:00,50.7,46.4,29.80,NNW,338,0.0,0.0,85,0.00,,OVC,7.36,VWS V14.00,2013-03-13 01:03:00,
2013-03-12 21:08:00,50.7,46.0,29.80,West,270,5.8,5.8,84,0.00,,OVC,7.36,VWS V14.00,2013-03-13 01:08:00,
2013-03-12 21:13:00,50.5,45.5,29.80,WNW,292,6.4,6.4,83,0.00,,OVC,7.36,VWS V14.00,2013-03-13 01:13:00,
2013-03-12 21:18:00,50.3,45.3,29.80,NW,315,0.0,0.0,83,0.00,,OVC,7.36,VWS V14.00,2013-03-13 01:18:00,
2013-03-12 21:23:00,50.1,44.8,29.80,NNE,22,0.0,0.0,82,0.00,,OVC,7.36,VWS V14.00,2013-03-13 01:23:00,
2013-03-12 21:28:00,50.1,44.8,29.80,NW,315,1.5,1.5,82,0.00,,OVC,7.36,VWS V14.00,2013-03-13 01:28:00,
2013-03-12 21:33:00,49.8,44.5,29.80,NW,315,8.2,8.2,82,0.00,,OVC,7.36,VWS V14.00,2013-03-13 01:33:00,
2013-03-12 21:38:00,49.6,44.3,29.80,WNW,292,0.0,0.0,82,0.00,,OVC,7.36,VWS V14.00,2013-03-13 01:38:00,
2013-03-12 21:43:00,49.6,44.0,29.80,WNW,292,3.1,3.1,81,0.00,,OVC,7.36,VWS V14.00,2013-03-13 01:43:00,
2013-03-12 21:48:00,49.2,44.0,29.80,NW,315,6.0,6.0,82,0.00,,OVC,7.36,VWS V14.00,2013-03-13 01:48:00,
2013-03-12 21:53:00,49.1,43.8,29.80,WNW,292,0.0,0.0,82,0.00,,OVC,7.36,VWS V14.00,2013-03-13 01:53:00,
2013-03-12 21:58:00,48.9,43.7,29.80,WNW,292,2.2,2.2,82,0.00,,OVC,7.36,VWS V14.00,2013-03-13 01:58:00,
2013-03-12 22:03:00,48.7,43.1,29.80,NW,315,2.4,2.4,81,0.00,,OVC,7.36,VWS V14.00,2013-03-13 02:03:00,
2013-03-12 22:08:00,48.7,43.1,29.80,North,0,4.0,4.0,81,0.00,,OVC,7.36,VWS V14.00,2013-03-13 02:08:00,
2013-03-12 22:13:00,48.7,43.1,29.80,WNW,292,1.1,1.1,81,0.00,,OVC,7.36,VWS V14.00,2013-03-13 02:13:00,
2013-03-12 22:18:00,48.7,43.1,29.81,NNE,22,0.0,0.0,81,0.00,,OVC,7.36,VWS V14.00,2013-03-13 02:18:00,
2013-03-12 22:23:00,48.3,43.1,29.81,WNW,292,3.3,3.3,82,0.00,,OVC,7.36,VWS V14.00,2013-03-13 02:23:00,
2013-03-12 22:28:00,48.0,42.8,29.82,NE,45,0.4,0.4,82,0.00,,OVC,7.36,VWS V14.00,2013-03-13 02:28:00,
2013-03-12 22:33:00,48.0,42.8,29.82,NW,315,0.0,0.0,82,0.00,,OVC,7.36,VWS V14.00,2013-03-13 02:33:00,
2013-03-12 22:38:00,48.0,42.8,29.82,West,270,0.0,0.0,82,0.00,,OVC,7.36,VWS V14.00,2013-03-13 02:38:00,
2013-03-12 22:43:00,48.0,42.8,29.83,WNW,292,0.0,0.0,82,0.00,,OVC,7.36,VWS V14.00,2013-03-13 02:43:00,
2013-03-12 22:48:00,47.8,42.6,29.83,West,270,0.0,0.0,82,0.00,,OVC,7.36,VWS V14.00,2013-03-13 02:48:00,
2013-03-12 22:53:00,47.6,42.4,29.83,West,270,0.0,0.0,82,0.00,,OVC,7.36,VWS V14.00,2013-03-13 02:53:00,
2013-03-12 22:58:00,47.4,42.2,29.83,WSW,248,0.0,0.0,82,0.00,,OVC,7.36,VWS V14.00,2013-03-13 02:58:00,
2013-03-12 23:03:00,47.3,42.1,29.83,WNW,292,2.0,2.0,82,0.00,,OVC,7.36,VWS V14.00,2013-03-13 03:03:00,
2013-03-12 23:08:00,47.1,42.2,29.83,NNE,22,3.8,3.8,83,0.00,,OVC,7.36,VWS V14.00,2013-03-13 03:08:00,
2013-03-12 23:13:00,47.1,41.9,29.84,NNE,22,0.0,0.0,82,0.00,,OVC,7.36,VWS V14.00,2013-03-13 03:13:00,
2013-03-12 23:18:00,46.7,41.5,29.83,NNE,22,1.3,1.3,82,0.00,,OVC,7.36,VWS V14.00,2013-03-13 03:18:00,
2013-03-12 23:23:00,46.5,41.3,29.83,WNW,292,0.0,0.0,82,0.00,,OVC,7.36,VWS V14.00,2013-03-13 03:23:00,
2013-03-12 23:28:00,46.5,41.3,29.84,NNE,22,5.3,5.3,82,0.00,,OVC,7.36,VWS V14.00,2013-03-13 03:28:00,
2013-03-12 23:33:00,46.5,41.0,29.84,NNE,22,4.6,4.6,81,0.00,,OVC,7.36,VWS V14.00,2013-03-13 03:33:00,
2013-03-12 23:38:00,46.5,40.7,29.84,North,0,0.0,0.0,80,0.00,,OVC,7.36,VWS V14.00,2013-03-13 03:38:00,
2013-03-12 23:43:00,46.5,40.3,29.84,WNW,292,0.0,0.0,79,0.00,,OVC,7.36,VWS V14.00,2013-03-13 03:43:00,
2013-03-12 23:48:00,46.7,39.9,29.84,NNE,22,0.0,0.0,77,0.00,,OVC,7.36,VWS V14.00,2013-03-13 03:48:00,
2013-03-12 23:53:00,46.5,39.7,29.84,West,270,0.0,0.0,77,0.00,,OVC,7.36,VWS V14.00,2013-03-13 03:53:00,
2013-03-12 23:58:00,46.2,39.1,29.84,ENE,68,5.3,5.3,76,0.00,,OVC,0.00,VWS V14.00,2013-03-13 03:58:00,